Time;durP1;ratioP1;P1;durP2;ratioP2;P2;SDS_P1;SDS_P2;PMS_P1;PMS_P2;Temp;Humidity;BMP_temperature;BMP_pressure;BME280_temperature;BME280_humidity;BME280_pressure;Samples;Min_cycle;Max_cycle;Signal;HPM_P1;HPM_P2
2021/04/19 00:03:24;;;;;;;9.13;5.83;;;;;;;;;;10420194;28;20212;-72
2021/04/19 00:08:27;;;;;;;10.27;6.10;;;;;;;;;;10424811;28;20258;-71
2021/04/19 00:13:29;;;;;;;13.57;6.70;;;;;;;;;;10417899;28;20223;-72
2021/04/19 00:18:31;;;;;;;14.93;6.93;;;;;;;;;;10425506;28;20211;-72
2021/04/19 00:23:34;;;;;;;12.53;6.30;;;;;;;;;;10424243;28;20223;-71
2021/04/19 00:28:36;;;;;;;14.30;6.70;;;;;;;;;;10423013;28;20258;-73
2021/04/19 00:33:38;;;;;;;14.73;7.00;;;;;;;;;;10415945;28;20219;-72
2021/04/19 00:38:41;;;;;;;13.17;6.90;;;;;;;;;;10426491;28;20262;-72
2021/04/19 00:43:43;;;;;;;14.83;7.03;;;;;;;;;;10425823;28;20246;-72
2021/04/19 00:48:45;;;;;;;12.03;6.80;;;;;;;;;;10420669;28;20249;-72
2021/04/19 00:53:48;;;;;;;15.53;7.33;;;;;;;;;;10425371;28;20219;-72
2021/04/19 00:58:50;;;;;;;13.33;7.30;;;;;;;;;;10424082;28;20227;-72
2021/04/19 01:03:52;;;;;;;14.77;7.50;;;;;;;;;;10425551;28;20211;-72
2021/04/19 01:08:55;;;;;;;17.80;8.30;;;;;;;;;;10423438;28;20247;-72
2021/04/19 01:13:56;;;;;;;14.47;7.97;;;;;;;;;;10418518;28;20678;-72
2021/04/19 01:18:59;;;;;;;14.57;7.70;;;;;;;;;;10418288;28;20805;-72
2021/04/19 01:24:01;;;;;;;15.93;8.33;;;;;;;;;;10423280;28;20230;-73
2021/04/19 01:29:03;;;;;;;15.43;8.33;;;;;;;;;;10418968;28;20247;-71
2021/04/19 01:34:05;;;;;;;14.03;8.27;;;;;;;;;;10418760;28;20990;-72
2021/04/19 01:39:09;;;;;;;17.93;9.13;;;;;;;;;;10423125;28;20718;-72
2021/04/19 01:44:10;;;;;;;17.60;8.70;;;;;;;;;;10421726;28;20222;-71
2021/04/19 01:49:13;;;;;;;18.23;9.33;;;;;;;;;;10414823;28;20736;-71
2021/04/19 01:54:16;;;;;;;17.50;9.20;;;;;;;;;;10427226;28;20207;-72
2021/04/19 01:59:19;;;;;;;22.23;10.03;;;;;;;;;;10421626;28;20207;-72
2021/04/19 02:04:26;;;;;;;17.37;9.63;;;;;;;;;;10424332;28;20227;-72
2021/04/19 02:09:35;;;;;;;19.13;10.30;;;;;;;;;;10409335;28;20230;-72
2021/04/19 02:14:39;;;;;;;18.00;9.77;;;;;;;;;;10408834;28;20219;-72
2021/04/19 02:19:42;;;;;;;17.80;10.20;;;;;;;;;;10425954;28;20626;-72
2021/04/19 02:24:47;;;;;;;19.90;10.27;;;;;;;;;;10431962;28;20222;-72
2021/04/19 02:29:50;;;;;;;17.33;9.93;;;;;;;;;;10409819;28;20232;-72
2021/04/19 02:34:53;;;;;;;17.33;10.13;;;;;;;;;;10430431;28;20215;-72
2021/04/19 02:39:57;;;;;;;18.43;10.33;;;;;;;;;;10423243;28;20623;-72
2021/04/19 02:45:00;;;;;;;23.13;11.50;;;;;;;;;;10430456;28;20231;-72
2021/04/19 02:50:04;;;;;;;23.07;10.93;;;;;;;;;;10423283;28;20616;-73
2021/04/19 02:55:08;;;;;;;22.33;12.03;;;;;;;;;;10426654;28;20223;-72
2021/04/19 03:00:11;;;;;;;24.83;11.63;;;;;;;;;;10423464;28;20226;-73
2021/04/19 03:05:13;;;;;;;22.90;11.70;;;;;;;;;;10429825;28;20537;-73
2021/04/19 03:10:18;;;;;;;26.40;13.07;;;;;;;;;;10424809;28;20725;-73
2021/04/19 03:15:23;;;;;;;25.20;12.43;;;;;;;;;;10425804;28;21120;-72
2021/04/19 03:20:26;;;;;;;21.87;11.83;;;;;;;;;;10417053;28;20488;-73
2021/04/19 03:25:29;;;;;;;23.13;11.70;;;;;;;;;;10431711;28;20595;-72
2021/04/19 03:30:32;;;;;;;24.17;12.10;;;;;;;;;;10418973;28;20259;-73
2021/04/19 03:35:36;;;;;;;19.70;11.30;;;;;;;;;;10426582;28;20215;-74
2021/04/19 03:40:40;;;;;;;23.20;11.90;;;;;;;;;;10412191;28;20232;-72
2021/04/19 03:45:43;;;;;;;24.53;12.30;;;;;;;;;;10419866;28;20219;-72
2021/04/19 03:50:46;;;;;;;23.77;11.70;;;;;;;;;;10432797;28;20274;-73
2021/04/19 03:55:50;;;;;;;23.67;12.67;;;;;;;;;;10422726;28;20216;-72
2021/04/19 04:00:52;;;;;;;21.50;12.10;;;;;;;;;;10426220;28;20211;-72
2021/04/19 04:05:55;;;;;;;23.00;13.57;;;;;;;;;;10421944;28;20713;-72
2021/04/19 04:10:59;;;;;;;25.33;13.23;;;;;;;;;;10425774;28;20250;-72
2021/04/19 04:16:01;;;;;;;23.43;13.27;;;;;;;;;;10417957;28;20219;-71
2021/04/19 04:21:03;;;;;;;26.30;14.13;;;;;;;;;;10430013;28;20215;-71
2021/04/19 04:26:06;;;;;;;24.13;13.50;;;;;;;;;;10424214;28;20217;-72
2021/04/19 04:31:09;;;;;;;23.50;13.63;;;;;;;;;;10427639;28;20772;-71
2021/04/19 04:36:11;;;;;;;25.50;13.77;;;;;;;;;;10419568;28;21162;-71
2021/04/19 04:41:14;;;;;;;24.37;13.47;;;;;;;;;;10428440;28;20227;-74
2021/04/19 04:46:19;;;;;;;22.90;12.30;;;;;;;;;;10412617;28;20744;-72
2021/04/19 04:51:22;;;;;;;22.63;12.47;;;;;;;;;;10422206;28;20218;-71
2021/04/19 04:56:27;;;;;;;23.20;13.70;;;;;;;;;;10420806;28;22146;-72
2021/04/19 05:01:30;;;;;;;24.27;13.00;;;;;;;;;;10423077;28;20580;-72
2021/04/19 05:06:33;;;;;;;24.33;13.83;;;;;;;;;;10419615;28;20235;-73
2021/04/19 05:11:38;;;;;;;23.00;13.13;;;;;;;;;;10422569;28;20212;-72
2021/04/19 05:16:39;;;;;;;24.03;14.33;;;;;;;;;;10420089;28;20234;-72
2021/04/19 05:21:41;;;;;;;23.93;12.67;;;;;;;;;;10413908;28;20219;-72
2021/04/19 05:26:44;;;;;;;21.53;12.80;;;;;;;;;;10404221;28;20267;-72
2021/04/19 05:31:46;;;;;;;19.70;11.97;;;;;;;;;;10413146;28;20226;-76
2021/04/19 05:36:49;;;;;;;22.87;13.50;;;;;;;;;;10420775;28;20271;-72
2021/04/19 05:41:52;;;;;;;20.30;13.33;;;;;;;;;;10430734;28;20217;-73
2021/04/19 05:46:54;;;;;;;28.23;14.57;;;;;;;;;;10434558;28;20234;-73
2021/04/19 05:51:58;;;;;;;24.73;14.70;;;;;;;;;;10432860;28;20222;-72
2021/04/19 05:57:05;;;;;;;23.17;13.50;;;;;;;;;;10431079;28;20226;-73
2021/04/19 06:02:08;;;;;;;25.30;13.63;;;;;;;;;;10434829;28;20537;-72
2021/04/19 06:07:12;;;;;;;25.90;14.07;;;;;;;;;;10431935;28;20289;-74
2021/04/19 06:12:17;;;;;;;26.73;14.33;;;;;;;;;;10436480;28;20211;-74
2021/04/19 06:17:20;;;;;;;25.40;14.10;;;;;;;;;;10439500;28;20217;-73
2021/04/19 06:22:23;;;;;;;28.30;14.83;;;;;;;;;;10428677;28;20296;-74
2021/04/19 06:27:26;;;;;;;25.83;13.70;;;;;;;;;;10426767;28;20242;-73
2021/04/19 06:32:28;;;;;;;25.03;13.90;;;;;;;;;;10429800;28;20219;-73
2021/04/19 06:37:30;;;;;;;24.33;13.63;;;;;;;;;;10417653;28;20238;-73
2021/04/19 06:42:33;;;;;;;23.93;13.40;;;;;;;;;;10423242;28;20227;-73
2021/04/19 06:47:35;;;;;;;22.87;13.57;;;;;;;;;;10436865;28;20242;-73
2021/04/19 06:52:39;;;;;;;23.37;13.03;;;;;;;;;;10427186;28;20236;-73
2021/04/19 06:57:44;;;;;;;28.53;13.87;;;;;;;;;;10410174;28;20225;-74
2021/04/19 07:02:50;;;;;;;24.57;13.83;;;;;;;;;;10427088;28;20211;-80
2021/04/19 07:08:01;;;;;;;25.40;14.17;;;;;;;;;;10425586;28;20980;-76
2021/04/19 07:13:07;;;;;;;24.93;14.47;;;;;;;;;;10425356;28;20224;-75
2021/04/19 07:18:09;;;;;;;22.57;14.20;;;;;;;;;;10424426;28;20212;-75
2021/04/19 07:23:12;;;;;;;23.67;14.13;;;;;;;;;;10431501;28;20897;-75
2021/04/19 07:28:15;;;;;;;23.80;14.10;;;;;;;;;;10424781;28;20273;-75
2021/04/19 07:33:26;;;;;;;25.20;14.13;;;;;;;;;;10428864;28;20223;-72
2021/04/19 07:38:32;;;;;;;23.47;14.20;;;;;;;;;;10414405;28;20822;-72
2021/04/19 07:43:37;;;;;;;28.43;14.33;;;;;;;;;;10416298;28;20215;-72
2021/04/19 07:48:41;;;;;;;26.50;14.53;;;;;;;;;;10419647;28;20247;-74
2021/04/19 07:53:43;;;;;;;23.30;14.33;;;;;;;;;;10419372;28;20646;-73
2021/04/19 07:58:46;;;;;;;24.73;14.43;;;;;;;;;;10419946;28;20211;-74
2021/04/19 08:03:48;;;;;;;25.60;15.50;;;;;;;;;;10424598;28;20216;-73
2021/04/19 08:08:49;;;;;;;26.83;15.57;;;;;;;;;;10421737;28;20258;-74
2021/04/19 08:13:54;;;;;;;22.07;14.27;;;;;;;;;;10418136;28;20222;-76
2021/04/19 08:19:03;;;;;;;25.77;14.70;;;;;;;;;;10417067;28;20231;-73
2021/04/19 08:24:11;;;;;;;22.53;13.70;;;;;;;;;;10410470;28;20331;-72
2021/04/19 08:29:34;;;;;;;25.13;14.37;;;;;;;;;;10415714;28;20715;-74
2021/04/19 08:34:37;;;;;;;22.47;13.53;;;;;;;;;;10421335;28;20211;-74
2021/04/19 08:39:40;;;;;;;26.00;13.87;;;;;;;;;;10422197;28;20254;-74
2021/04/19 08:44:55;;;;;;;23.37;13.90;;;;;;;;;;10420243;28;20995;-73
2021/04/19 08:50:01;;;;;;;28.33;14.57;;;;;;;;;;10412111;28;20239;-73
2021/04/19 08:55:04;;;;;;;21.80;14.20;;;;;;;;;;10418921;28;20249;-74
2021/04/19 09:00:07;;;;;;;25.10;14.60;;;;;;;;;;10418885;28;20245;-73
2021/04/19 09:05:10;;;;;;;25.43;14.20;;;;;;;;;;10422572;28;20208;-73
2021/04/19 09:10:14;;;;;;;24.07;13.83;;;;;;;;;;10419985;28;20241;-73
2021/04/19 09:15:25;;;;;;;24.67;14.63;;;;;;;;;;10421280;28;20299;-73
2021/04/19 09:20:30;;;;;;;22.73;13.93;;;;;;;;;;10418350;28;20214;-74
2021/04/19 09:25:41;;;;;;;24.83;15.30;;;;;;;;;;10411686;28;20697;-74
2021/04/19 09:30:47;;;;;;;22.60;13.07;;;;;;;;;;10409034;28;21081;-74
2021/04/19 09:35:50;;;;;;;22.33;12.93;;;;;;;;;;10418527;28;20215;-74
2021/04/19 09:40:54;;;;;;;17.07;10.57;;;;;;;;;;10413475;28;20742;-74
2021/04/19 09:45:58;;;;;;;17.77;10.80;;;;;;;;;;10411254;28;20219;-76
2021/04/19 09:51:13;;;;;;;19.57;11.63;;;;;;;;;;10411739;28;20226;-73
2021/04/19 09:56:20;;;;;;;14.27;9.80;;;;;;;;;;10410688;28;20504;-76
2021/04/19 10:01:23;;;;;;;14.00;8.90;;;;;;;;;;10404053;28;20218;-75
2021/04/19 10:06:29;;;;;;;13.53;8.50;;;;;;;;;;10408494;28;20680;-76
2021/04/19 10:11:34;;;;;;;11.17;7.60;;;;;;;;;;10410312;28;20240;-74
2021/04/19 10:16:41;;;;;;;9.50;6.67;;;;;;;;;;10410748;28;20215;-77
2021/04/19 10:21:43;;;;;;;12.20;7.10;;;;;;;;;;10414435;28;20224;-74
2021/04/19 10:26:44;;;;;;;11.03;7.40;;;;;;;;;;10406758;28;20778;-75
2021/04/19 10:31:48;;;;;;;13.57;7.80;;;;;;;;;;10416834;28;20616;-75
2021/04/19 10:36:51;;;;;;;12.87;7.97;;;;;;;;;;10418590;28;20211;-74
2021/04/19 10:41:53;;;;;;;11.03;7.00;;;;;;;;;;10418534;28;20203;-74
2021/04/19 10:46:56;;;;;;;9.33;6.90;;;;;;;;;;10407652;28;20231;-76
2021/04/19 10:52:00;;;;;;;8.50;6.10;;;;;;;;;;10420269;28;20215;-74
2021/04/19 10:57:03;;;;;;;8.33;6.13;;;;;;;;;;10396065;28;20216;-74
2021/04/19 11:02:06;;;;;;;7.90;6.17;;;;;;;;;;10412883;28;20211;-75
2021/04/19 11:07:24;;;;;;;8.60;5.73;;;;;;;;;;10412327;28;20392;-74
2021/04/19 11:12:25;;;;;;;6.50;5.20;;;;;;;;;;10410538;28;20223;-74
2021/04/19 11:17:30;;;;;;;6.97;5.00;;;;;;;;;;10412053;28;20301;-75
2021/04/19 11:22:33;;;;;;;5.50;4.67;;;;;;;;;;10408990;28;20704;-75
2021/04/19 11:27:45;;;;;;;7.20;5.07;;;;;;;;;;10406689;28;20571;-75
2021/04/19 11:33:00;;;;;;;6.77;4.77;;;;;;;;;;10405217;28;20223;-75
2021/04/19 11:38:04;;;;;;;6.83;5.00;;;;;;;;;;10409867;28;20269;-79
2021/04/19 11:43:15;;;;;;;6.43;4.80;;;;;;;;;;10391457;28;20875;-77
2021/04/19 11:48:18;;;;;;;6.83;5.47;;;;;;;;;;10411087;28;20238;-75
2021/04/19 11:53:24;;;;;;;7.67;5.83;;;;;;;;;;10408237;28;20222;-77
2021/04/19 11:58:25;;;;;;;8.43;6.00;;;;;;;;;;10411628;28;20237;-75
2021/04/19 12:03:28;;;;;;;7.80;5.60;;;;;;;;;;10408872;28;20208;-74
2021/04/19 12:08:31;;;;;;;9.23;6.10;;;;;;;;;;10404542;28;20276;-74
2021/04/19 12:13:33;;;;;;;8.23;4.87;;;;;;;;;;10405160;28;20235;-74
2021/04/19 12:18:36;;;;;;;7.33;4.80;;;;;;;;;;10410942;28;20302;-75
2021/04/19 12:23:39;;;;;;;6.03;4.67;;;;;;;;;;10405279;28;20681;-75
2021/04/19 12:28:41;;;;;;;7.97;4.97;;;;;;;;;;10408018;28;20346;-75
2021/04/19 12:33:45;;;;;;;7.33;5.00;;;;;;;;;;10405467;28;20220;-74
2021/04/19 12:38:47;;;;;;;5.47;4.43;;;;;;;;;;10406903;28;20657;-74
2021/04/19 12:43:50;;;;;;;5.43;3.80;;;;;;;;;;10404301;28;20215;-74
2021/04/19 12:48:52;;;;;;;4.63;3.63;;;;;;;;;;10415266;28;20238;-73
2021/04/19 12:53:56;;;;;;;6.00;4.50;;;;;;;;;;10414938;28;21134;-74
2021/04/19 12:59:00;;;;;;;7.27;4.63;;;;;;;;;;10409691;28;20707;-76
2021/04/19 13:04:03;;;;;;;6.30;4.37;;;;;;;;;;10416541;28;20216;-80
2021/04/19 13:09:06;;;;;;;7.73;4.37;;;;;;;;;;10419483;28;20241;-76
2021/04/19 13:14:08;;;;;;;6.43;4.80;;;;;;;;;;10412028;28;20211;-74
2021/04/19 13:19:10;;;;;;;6.20;4.63;;;;;;;;;;10406972;28;20212;-82
2021/04/19 13:24:13;;;;;;;6.80;4.77;;;;;;;;;;10387656;28;20216;-76
2021/04/19 13:29:15;;;;;;;5.27;4.50;;;;;;;;;;10733603;22;20759;-89
2021/04/19 13:34:18;;;;;;;5.50;4.07;;;;;;;;;;10450589;28;20640;-90
2021/04/19 13:39:20;;;;;;;7.47;4.53;;;;;;;;;;10427855;28;20758;-90
2021/04/19 13:44:22;;;;;;;6.77;4.60;;;;;;;;;;10413901;28;20868;-88
2021/04/19 13:49:25;;;;;;;5.97;4.47;;;;;;;;;;10415161;28;20238;-91
2021/04/19 13:54:27;;;;;;;6.13;4.87;;;;;;;;;;10408795;28;20220;-90
2021/04/19 13:59:29;;;;;;;6.93;4.30;;;;;;;;;;10413531;28;20219;-91
2021/04/19 14:04:31;;;;;;;5.60;4.23;;;;;;;;;;10420391;28;20222;-90
2021/04/19 14:09:34;;;;;;;7.40;4.10;;;;;;;;;;10423611;28;20231;-88
2021/04/19 14:14:36;;;;;;;5.73;4.73;;;;;;;;;;10411029;28;20236;-87
2021/04/19 14:19:39;;;;;;;6.27;5.00;;;;;;;;;;10816492;22;20225;-72
2021/04/19 14:24:40;;;;;;;8.53;4.70;;;;;;;;;;10409679;28;20242;-74
2021/04/19 14:29:42;;;;;;;8.70;6.20;;;;;;;;;;10447619;28;20241;-73
2021/04/19 14:34:45;;;;;;;8.97;6.57;;;;;;;;;;10934987;22;20710;-80
2021/04/19 14:39:48;;;;;;;8.83;6.20;;;;;;;;;;10402058;28;20259;-82
2021/04/19 14:44:51;;;;;;;7.87;6.00;;;;;;;;;;10406116;28;20243;-80
2021/04/19 14:49:54;;;;;;;7.50;5.97;;;;;;;;;;10750503;22;20239;-81
2021/04/19 14:54:55;;;;;;;7.50;5.70;;;;;;;;;;10413747;28;20762;-82
2021/04/19 14:59:56;;;;;;;7.87;5.93;;;;;;;;;;10414687;28;20795;-83
2021/04/19 15:04:58;;;;;;;6.90;5.77;;;;;;;;;;10417204;28;20278;-80
2021/04/19 15:10:00;;;;;;;7.93;6.13;;;;;;;;;;10840098;22;20346;-76
2021/04/19 15:15:02;;;;;;;7.83;6.00;;;;;;;;;;10370848;28;20243;-76
2021/04/19 15:20:06;;;;;;;9.13;7.07;;;;;;;;;;10375761;28;20676;-77
2021/04/19 15:25:08;;;;;;;9.20;6.87;;;;;;;;;;10374561;28;20228;-75
2021/04/19 15:30:10;;;;;;;8.37;6.47;;;;;;;;;;10376060;28;20232;-79
2021/04/19 15:35:14;;;;;;;9.33;6.23;;;;;;;;;;10374387;28;20232;-77
2021/04/19 15:40:17;;;;;;;8.93;5.57;;;;;;;;;;10351214;28;20263;-77
2021/04/19 15:45:19;;;;;;;8.90;6.10;;;;;;;;;;10349482;28;20216;-75
2021/04/19 15:50:22;;;;;;;7.73;6.13;;;;;;;;;;10352464;28;20237;-76
2021/04/19 15:55:24;;;;;;;7.03;5.50;;;;;;;;;;10350791;28;20617;-77
2021/04/19 16:00:25;;;;;;;7.70;6.13;;;;;;;;;;10762056;22;20254;-77
2021/04/19 16:05:28;;;;;;;7.33;5.83;;;;;;;;;;10414940;28;20254;-77
2021/04/19 16:10:29;;;;;;;7.43;5.60;;;;;;;;;;10417171;28;20239;-77
2021/04/19 16:15:30;;;;;;;9.37;6.17;;;;;;;;;;10410943;28;20225;-76
2021/04/19 16:20:32;;;;;;;7.50;5.67;;;;;;;;;;10414004;28;20694;-77
2021/04/19 16:25:33;;;;;;;8.10;5.37;;;;;;;;;;10414457;28;20208;-77
2021/04/19 16:30:35;;;;;;;6.50;5.10;;;;;;;;;;10412202;28;20231;-77
2021/04/19 16:35:37;;;;;;;7.33;5.53;;;;;;;;;;10411208;28;20354;-78
2021/04/19 16:40:38;;;;;;;5.70;4.90;;;;;;;;;;10379334;28;20240;-77
2021/04/19 16:45:40;;;;;;;7.17;5.50;;;;;;;;;;10365795;28;20211;-80
2021/04/19 16:50:42;;;;;;;6.60;5.03;;;;;;;;;;10369955;28;20286;-82
2021/04/19 16:55:43;;;;;;;9.60;5.37;;;;;;;;;;10374179;28;20216;-84
2021/04/19 17:00:45;;;;;;;7.97;5.37;;;;;;;;;;10369548;28;20258;-88
2021/04/19 17:11:07;;;;;;;9.60;6.90;;;;;;;;;;10787987;22;20725;-79
2021/04/19 17:16:09;;;;;;;9.20;7.03;;;;;;;;;;10371840;28;20215;-80
2021/04/19 17:21:11;;;;;;;9.33;6.60;;;;;;;;;;10374740;28;20231;-77
2021/04/19 17:26:14;;;;;;;8.70;6.90;;;;;;;;;;10371067;28;20469;-76
2021/04/19 17:31:16;;;;;;;9.43;6.87;;;;;;;;;;10365165;28;20235;-76
2021/04/19 17:36:18;;;;;;;9.63;7.90;;;;;;;;;;10364247;28;20223;-78
2021/04/19 17:41:21;;;;;;;8.47;6.67;;;;;;;;;;10324498;28;20237;-75
2021/04/19 17:46:25;;;;;;;8.40;6.20;;;;;;;;;;10319302;28;20209;-75
2021/04/19 17:51:27;;;;;;;8.57;6.50;;;;;;;;;;10323398;28;20563;-75
2021/04/19 17:56:30;;;;;;;7.87;6.10;;;;;;;;;;10322366;28;20213;-75
2021/04/19 18:01:32;;;;;;;10.23;7.10;;;;;;;;;;10320964;28;20298;-76
2021/04/19 18:06:34;;;;;;;9.27;6.93;;;;;;;;;;10324714;28;20308;-76
2021/04/19 18:11:39;;;;;;;8.47;6.70;;;;;;;;;;10323703;28;20266;-76
2021/04/19 18:16:41;;;;;;;8.37;6.67;;;;;;;;;;10315362;28;20226;-76
2021/04/19 18:21:43;;;;;;;9.30;6.67;;;;;;;;;;10317574;28;20217;-76
2021/04/19 18:26:46;;;;;;;8.83;7.03;;;;;;;;;;10315133;28;20224;-76
2021/04/19 18:31:48;;;;;;;8.43;6.67;;;;;;;;;;10315690;28;21463;-76
2021/04/19 18:36:51;;;;;;;9.50;7.37;;;;;;;;;;10319790;28;20269;-76
2021/04/19 18:41:53;;;;;;;8.53;6.70;;;;;;;;;;10315071;28;21062;-76
2021/04/19 18:46:56;;;;;;;10.43;7.30;;;;;;;;;;10320807;28;20875;-80
2021/04/19 18:51:58;;;;;;;9.07;7.10;;;;;;;;;;10329090;28;20876;-81
2021/04/19 18:57:02;;;;;;;9.93;7.37;;;;;;;;;;10331258;28;20229;-81
2021/04/19 19:02:04;;;;;;;9.53;7.30;;;;;;;;;;10331151;28;20342;-81
2021/04/19 19:07:06;;;;;;;9.83;7.37;;;;;;;;;;10328756;28;20291;-81
2021/04/19 19:12:09;;;;;;;10.10;7.77;;;;;;;;;;10328983;28;20240;-81
2021/04/19 19:17:11;;;;;;;10.07;7.47;;;;;;;;;;10327626;28;20212;-80
2021/04/19 19:22:13;;;;;;;15.77;11.43;;;;;;;;;;10329599;28;20682;-80
2021/04/19 19:27:16;;;;;;;10.20;7.77;;;;;;;;;;10330201;28;20588;-80
2021/04/19 19:32:19;;;;;;;13.33;7.67;;;;;;;;;;10331124;28;20229;-79
2021/04/19 19:37:20;;;;;;;10.10;7.30;;;;;;;;;;10328819;28;21032;-79
2021/04/19 19:42:23;;;;;;;9.03;7.60;;;;;;;;;;10330432;28;20217;-79
2021/04/19 19:47:25;;;;;;;12.47;8.10;;;;;;;;;;10317695;28;20244;-80
2021/04/19 19:52:27;;;;;;;12.53;8.00;;;;;;;;;;10327512;28;20236;-79
2021/04/19 19:57:31;;;;;;;11.53;8.37;;;;;;;;;;10323049;28;20304;-80
2021/04/19 20:02:33;;;;;;;10.47;7.93;;;;;;;;;;10320192;28;20241;-79
2021/04/19 20:07:35;;;;;;;12.57;8.80;;;;;;;;;;10322848;28;20227;-79
2021/04/19 20:12:38;;;;;;;12.93;9.20;;;;;;;;;;10326644;28;20651;-80
2021/04/19 20:17:41;;;;;;;15.00;8.90;;;;;;;;;;10325593;28;20223;-79
2021/04/19 20:22:43;;;;;;;13.63;8.43;;;;;;;;;;10321364;28;20232;-80
2021/04/19 20:27:46;;;;;;;13.37;9.00;;;;;;;;;;10318593;28;20224;-79
2021/04/19 20:32:48;;;;;;;14.20;10.03;;;;;;;;;;10319670;28;20241;-79
2021/04/19 20:37:50;;;;;;;13.23;9.37;;;;;;;;;;10321166;28;20228;-78
2021/04/19 20:42:54;;;;;;;16.20;10.20;;;;;;;;;;10314419;28;20275;-80
2021/04/19 20:47:57;;;;;;;14.33;10.10;;;;;;;;;;10317691;28;20573;-79
2021/04/19 20:53:00;;;;;;;13.30;9.97;;;;;;;;;;10323607;28;20237;-80
2021/04/19 20:58:03;;;;;;;12.70;9.77;;;;;;;;;;10322733;28;20249;-80
2021/04/19 21:03:05;;;;;;;13.17;9.30;;;;;;;;;;10320892;28;20213;-79
2021/04/19 21:08:07;;;;;;;14.40;10.60;;;;;;;;;;10325750;28;20314;-77
2021/04/19 21:13:10;;;;;;;13.30;9.63;;;;;;;;;;10319362;28;20224;-79
2021/04/19 21:18:12;;;;;;;13.60;9.77;;;;;;;;;;10324020;28;20654;-79
2021/04/19 21:23:14;;;;;;;14.13;9.97;;;;;;;;;;10321528;28;20521;-78
2021/04/19 21:28:17;;;;;;;14.03;9.60;;;;;;;;;;10323003;28;20221;-80
2021/04/19 21:33:19;;;;;;;14.40;9.80;;;;;;;;;;10319685;28;20422;-80
2021/04/19 21:38:22;;;;;;;14.30;9.77;;;;;;;;;;10325296;28;20383;-79
2021/04/19 21:43:25;;;;;;;12.00;9.30;;;;;;;;;;10320860;28;20213;-79
2021/04/19 21:48:27;;;;;;;13.47;9.90;;;;;;;;;;10322939;28;20213;-80
2021/04/19 21:53:29;;;;;;;12.03;9.17;;;;;;;;;;10318937;28;20209;-80
2021/04/19 21:58:32;;;;;;;14.30;10.03;;;;;;;;;;10323814;28;20217;-79
2021/04/19 22:03:34;;;;;;;16.00;10.80;;;;;;;;;;10320607;28;20223;-80
2021/04/19 22:08:36;;;;;;;16.60;11.70;;;;;;;;;;10322741;28;20240;-80
2021/04/19 22:13:40;;;;;;;15.07;10.93;;;;;;;;;;10321607;28;20212;-80
2021/04/19 22:18:42;;;;;;;15.73;10.30;;;;;;;;;;10323881;28;20221;-80
2021/04/19 22:23:45;;;;;;;14.43;10.87;;;;;;;;;;10327754;28;20292;-80
2021/04/19 22:28:48;;;;;;;16.30;10.93;;;;;;;;;;10335548;28;20232;-80
2021/04/19 22:33:50;;;;;;;14.90;10.70;;;;;;;;;;10327604;28;20233;-79
2021/04/19 22:38:52;;;;;;;13.10;10.27;;;;;;;;;;10330534;28;20267;-80
2021/04/19 22:43:55;;;;;;;17.50;11.00;;;;;;;;;;10326526;28;20256;-80
2021/04/19 22:48:59;;;;;;;16.07;10.17;;;;;;;;;;10330000;28;20251;-80
2021/04/19 22:54:01;;;;;;;13.50;10.30;;;;;;;;;;10331327;28;20302;-80
2021/04/19 22:59:04;;;;;;;14.03;10.97;;;;;;;;;;10327261;28;20213;-80
2021/04/19 23:04:06;;;;;;;14.20;10.93;;;;;;;;;;10333438;28;20631;-79
2021/04/19 23:09:08;;;;;;;13.50;10.43;;;;;;;;;;10328831;28;20234;-79
2021/04/19 23:14:11;;;;;;;11.90;9.13;;;;;;;;;;10329453;28;20224;-80
2021/04/19 23:19:14;;;;;;;11.93;9.73;;;;;;;;;;10325609;28;20272;-80
2021/04/19 23:24:15;;;;;;;13.97;9.70;;;;;;;;;;10334569;28;20675;-80
2021/04/19 23:29:18;;;;;;;12.43;9.33;;;;;;;;;;10323337;28;20244;-80
2021/04/19 23:34:20;;;;;;;12.23;10.10;;;;;;;;;;10331226;28;20686;-80
2021/04/19 23:39:22;;;;;;;13.80;10.63;;;;;;;;;;10325596;28;20266;-79
2021/04/19 23:44:30;;;;;;;14.20;10.53;;;;;;;;;;10327820;28;20574;-80
2021/04/19 23:49:32;;;;;;;13.77;10.63;;;;;;;;;;10325470;28;20617;-79
2021/04/19 23:54:33;;;;;;;15.37;11.40;;;;;;;;;;10328271;28;20221;-79
2021/04/19 23:59:36;;;;;;;14.37;10.77;;;;;;;;;;10322975;28;20685;-78
